sensor_id;sensor_type;location;lat;lon;timestamp;temperature;humidity
21115;DHT22;10715;48.546;9.896;2022-12-08T00:01:11;-0.20;99.90
21115;DHT22;10715;48.546;9.896;2022-12-08T00:03:38;-0.30;99.90
21115;DHT22;10715;48.546;9.896;2022-12-08T00:06:06;-0.30;99.90
21115;DHT22;10715;48.546;9.896;2022-12-08T00:08:50;-0.30;99.90
21115;DHT22;10715;48.546;9.896;2022-12-08T00:11:35;-0.30;99.90
21115;DHT22;10715;48.546;9.896;2022-12-08T00:14:01;-0.30;99.90
21115;DHT22;10715;48.546;9.896;2022-12-08T00:16:27;-0.30;99.90
21115;DHT22;10715;48.546;9.896;2022-12-08T00:18:52;-0.30;99.90
21115;DHT22;10715;48.546;9.896;2022-12-08T00:21:18;-0.40;99.90
21115;DHT22;10715;48.546;9.896;2022-12-08T00:23:44;-0.40;99.90
21115;DHT22;10715;48.546;9.896;2022-12-08T00:26:09;-0.50;99.90
21115;DHT22;10715;48.546;9.896;2022-12-08T00:28:35;-0.50;99.90
21115;DHT22;10715;48.546;9.896;2022-12-08T00:31:07;-0.60;99.90
21115;DHT22;10715;48.546;9.896;2022-12-08T00:33:34;-0.70;99.90
21115;DHT22;10715;48.546;9.896;2022-12-08T00:36:08;-0.70;99.90
21115;DHT22;10715;48.546;9.896;2022-12-08T00:38:35;-0.80;99.90
21115;DHT22;10715;48.546;9.896;2022-12-08T00:41:02;-0.80;99.90
21115;DHT22;10715;48.546;9.896;2022-12-08T00:43:28;-0.90;99.90
21115;DHT22;10715;48.546;9.896;2022-12-08T00:45:53;-1.00;99.90
21115;DHT22;10715;48.546;9.896;2022-12-08T00:48:19;-1.10;99.90
21115;DHT22;10715;48.546;9.896;2022-12-08T00:50:45;-1.10;99.90
21115;DHT22;10715;48.546;9.896;2022-12-08T00:53:10;-1.20;99.90
21115;DHT22;10715;48.546;9.896;2022-12-08T00:55:36;-1.40;99.90
21115;DHT22;10715;48.546;9.896;2022-12-08T00:58:02;-1.50;99.90
21115;DHT22;10715;48.546;9.896;2022-12-08T01:00:27;-1.60;99.90
21115;DHT22;10715;48.546;9.896;2022-12-08T01:02:53;-1.60;99.90
21115;DHT22;10715;48.546;9.896;2022-12-08T01:05:19;-1.70;99.90
21115;DHT22;10715;48.546;9.896;2022-12-08T01:07:45;-1.70;99.90
21115;DHT22;10715;48.546;9.896;2022-12-08T01:10:10;-1.80;99.90
21115;DHT22;10715;48.546;9.896;2022-12-08T01:12:36;-1.80;99.90
21115;DHT22;10715;48.546;9.896;2022-12-08T01:15:02;-1.90;99.90
21115;DHT22;10715;48.546;9.896;2022-12-08T01:17:28;-2.00;99.90
21115;DHT22;10715;48.546;9.896;2022-12-08T01:19:54;-2.00;99.90
21115;DHT22;10715;48.546;9.896;2022-12-08T01:22:19;-2.10;99.90
21115;DHT22;10715;48.546;9.896;2022-12-08T01:24:45;-2.20;99.90
21115;DHT22;10715;48.546;9.896;2022-12-08T01:27:11;-2.20;99.90
21115;DHT22;10715;48.546;9.896;2022-12-08T01:29:36;-2.30;99.90
21115;DHT22;10715;48.546;9.896;2022-12-08T01:32:02;-2.40;99.90
21115;DHT22;10715;48.546;9.896;2022-12-08T01:34:28;-2.40;99.90
21115;DHT22;10715;48.546;9.896;2022-12-08T01:36:54;-2.40;99.90
21115;DHT22;10715;48.546;9.896;2022-12-08T01:39:19;-2.50;99.90
21115;DHT22;10715;48.546;9.896;2022-12-08T01:41:46;-2.50;99.90
21115;DHT22;10715;48.546;9.896;2022-12-08T01:46:43;-2.60;99.90
21115;DHT22;10715;48.546;9.896;2022-12-08T01:52:18;-2.70;99.90
21115;DHT22;10715;48.546;9.896;2022-12-08T01:54:52;-2.80;99.90
21115;DHT22;10715;48.546;9.896;2022-12-08T01:57:24;-2.90;99.90
21115;DHT22;10715;48.546;9.896;2022-12-08T01:59:56;-2.90;99.90
21115;DHT22;10715;48.546;9.896;2022-12-08T02:02:30;-2.90;99.90
21115;DHT22;10715;48.546;9.896;2022-12-08T02:04:56;-3.00;99.90
21115;DHT22;10715;48.546;9.896;2022-12-08T02:07:22;-3.00;99.90
21115;DHT22;10715;48.546;9.896;2022-12-08T02:09:49;-3.10;99.90
21115;DHT22;10715;48.546;9.896;2022-12-08T02:12:15;-3.20;99.90
21115;DHT22;10715;48.546;9.896;2022-12-08T02:14:42;-3.20;99.90
21115;DHT22;10715;48.546;9.896;2022-12-08T02:17:16;-3.20;99.90
21115;DHT22;10715;48.546;9.896;2022-12-08T02:20:14;-3.20;99.90
21115;DHT22;10715;48.546;9.896;2022-12-08T02:23:07;-3.20;99.90
21115;DHT22;10715;48.546;9.896;2022-12-08T02:28:51;-3.30;99.90
21115;DHT22;10715;48.546;9.896;2022-12-08T02:34:28;-3.40;99.90
21115;DHT22;10715;48.546;9.896;2022-12-08T02:39:52;-3.30;99.90
21115;DHT22;10715;48.546;9.896;2022-12-08T02:43:33;-3.40;99.90
21115;DHT22;10715;48.546;9.896;2022-12-08T02:45:39;-3.40;99.90
21115;DHT22;10715;48.546;9.896;2022-12-08T02:48:07;-3.40;99.90
21115;DHT22;10715;48.546;9.896;2022-12-08T02:50:33;-3.40;99.90
21115;DHT22;10715;48.546;9.896;2022-12-08T02:52:59;-3.50;99.90
21115;DHT22;10715;48.546;9.896;2022-12-08T03:01:35;-3.60;99.90
21115;DHT22;10715;48.546;9.896;2022-12-08T03:10:04;-3.60;99.90
21115;DHT22;10715;48.546;9.896;2022-12-08T03:12:40;-3.60;99.90
21115;DHT22;10715;48.546;9.896;2022-12-08T03:15:12;-3.60;99.90
21115;DHT22;10715;48.546;9.896;2022-12-08T03:17:42;-3.70;99.90
21115;DHT22;10715;48.546;9.896;2022-12-08T03:20:13;-3.70;99.90
21115;DHT22;10715;48.546;9.896;2022-12-08T03:22:41;-3.80;99.90
21115;DHT22;10715;48.546;9.896;2022-12-08T03:25:12;-3.90;99.90
21115;DHT22;10715;48.546;9.896;2022-12-08T03:27:39;-4.00;99.90
21115;DHT22;10715;48.546;9.896;2022-12-08T03:30:06;-4.10;99.90
21115;DHT22;10715;48.546;9.896;2022-12-08T03:32:42;-4.20;99.90
21115;DHT22;10715;48.546;9.896;2022-12-08T03:35:14;-4.20;99.90
21115;DHT22;10715;48.546;9.896;2022-12-08T03:37:41;-4.30;99.90
21115;DHT22;10715;48.546;9.896;2022-12-08T03:40:10;-4.30;99.90
21115;DHT22;10715;48.546;9.896;2022-12-08T03:42:37;-4.30;99.90
21115;DHT22;10715;48.546;9.896;2022-12-08T03:45:03;-4.30;99.90
21115;DHT22;10715;48.546;9.896;2022-12-08T03:47:29;-4.40;99.90
21115;DHT22;10715;48.546;9.896;2022-12-08T03:49:55;-4.40;99.90
21115;DHT22;10715;48.546;9.896;2022-12-08T03:52:20;-4.40;99.90
21115;DHT22;10715;48.546;9.896;2022-12-08T03:54:46;-4.40;99.90
21115;DHT22;10715;48.546;9.896;2022-12-08T03:57:12;-4.40;99.90
21115;DHT22;10715;48.546;9.896;2022-12-08T03:59:38;-4.30;99.90
21115;DHT22;10715;48.546;9.896;2022-12-08T04:02:04;-4.30;99.90
21115;DHT22;10715;48.546;9.896;2022-12-08T04:04:30;-4.20;99.90
21115;DHT22;10715;48.546;9.896;2022-12-08T04:06:56;-4.20;99.90
21115;DHT22;10715;48.546;9.896;2022-12-08T04:09:21;-4.10;99.90
21115;DHT22;10715;48.546;9.896;2022-12-08T04:11:47;-4.10;99.90
21115;DHT22;10715;48.546;9.896;2022-12-08T04:14:13;-4.10;99.90
21115;DHT22;10715;48.546;9.896;2022-12-08T04:16:39;-4.00;99.90
21115;DHT22;10715;48.546;9.896;2022-12-08T04:19:05;-3.90;99.90
21115;DHT22;10715;48.546;9.896;2022-12-08T04:21:31;-3.90;99.90
21115;DHT22;10715;48.546;9.896;2022-12-08T04:23:56;-3.80;99.90
21115;DHT22;10715;48.546;9.896;2022-12-08T04:26:22;-3.80;99.90
21115;DHT22;10715;48.546;9.896;2022-12-08T04:28:48;-3.70;99.90
21115;DHT22;10715;48.546;9.896;2022-12-08T04:31:14;-3.70;99.90
21115;DHT22;10715;48.546;9.896;2022-12-08T04:33:39;-3.70;99.90
21115;DHT22;10715;48.546;9.896;2022-12-08T04:36:05;-3.70;99.90
21115;DHT22;10715;48.546;9.896;2022-12-08T04:38:32;-3.70;99.90
21115;DHT22;10715;48.546;9.896;2022-12-08T04:40:58;-3.70;99.90
21115;DHT22;10715;48.546;9.896;2022-12-08T04:43:24;-3.70;99.90
21115;DHT22;10715;48.546;9.896;2022-12-08T04:45:49;-3.80;99.90
21115;DHT22;10715;48.546;9.896;2022-12-08T04:48:15;-3.80;99.90
21115;DHT22;10715;48.546;9.896;2022-12-08T04:50:42;-3.80;99.90
21115;DHT22;10715;48.546;9.896;2022-12-08T04:53:10;-3.80;99.90
21115;DHT22;10715;48.546;9.896;2022-12-08T04:55:43;-3.80;99.90
21115;DHT22;10715;48.546;9.896;2022-12-08T04:58:13;-3.80;99.90
21115;DHT22;10715;48.546;9.896;2022-12-08T05:00:40;-3.80;99.90
21115;DHT22;10715;48.546;9.896;2022-12-08T05:03:06;-3.80;99.90
21115;DHT22;10715;48.546;9.896;2022-12-08T05:05:32;-3.80;99.90
21115;DHT22;10715;48.546;9.896;2022-12-08T05:07:58;-3.80;99.90
21115;DHT22;10715;48.546;9.896;2022-12-08T05:10:23;-3.80;99.90
21115;DHT22;10715;48.546;9.896;2022-12-08T05:12:49;-3.90;99.90
21115;DHT22;10715;48.546;9.896;2022-12-08T05:15:15;-3.90;99.90
21115;DHT22;10715;48.546;9.896;2022-12-08T05:17:41;-4.00;99.90
21115;DHT22;10715;48.546;9.896;2022-12-08T05:20:07;-4.10;99.90
21115;DHT22;10715;48.546;9.896;2022-12-08T05:22:33;-4.20;99.90
21115;DHT22;10715;48.546;9.896;2022-12-08T05:24:58;-4.20;99.90
21115;DHT22;10715;48.546;9.896;2022-12-08T05:27:24;-4.30;99.90
21115;DHT22;10715;48.546;9.896;2022-12-08T05:29:50;-4.30;99.90
21115;DHT22;10715;48.546;9.896;2022-12-08T05:32:16;-4.40;99.90
21115;DHT22;10715;48.546;9.896;2022-12-08T05:34:41;-4.30;99.90
21115;DHT22;10715;48.546;9.896;2022-12-08T05:37:07;-4.40;99.90
21115;DHT22;10715;48.546;9.896;2022-12-08T05:39:33;-4.40;99.90
21115;DHT22;10715;48.546;9.896;2022-12-08T05:41:59;-4.40;99.90
21115;DHT22;10715;48.546;9.896;2022-12-08T05:44:25;-4.40;99.90
21115;DHT22;10715;48.546;9.896;2022-12-08T05:46:51;-4.40;99.90
21115;DHT22;10715;48.546;9.896;2022-12-08T05:49:17;-4.50;99.90
21115;DHT22;10715;48.546;9.896;2022-12-08T05:51:43;-4.50;99.90
21115;DHT22;10715;48.546;9.896;2022-12-08T05:54:09;-4.50;99.90
21115;DHT22;10715;48.546;9.896;2022-12-08T05:56:35;-4.50;99.90
21115;DHT22;10715;48.546;9.896;2022-12-08T05:59:01;-4.60;99.90
21115;DHT22;10715;48.546;9.896;2022-12-08T06:01:30;-4.60;99.90
21115;DHT22;10715;48.546;9.896;2022-12-08T06:03:57;-4.60;99.90
21115;DHT22;10715;48.546;9.896;2022-12-08T06:06:23;-4.60;99.90
21115;DHT22;10715;48.546;9.896;2022-12-08T06:08:50;-4.70;99.90
21115;DHT22;10715;48.546;9.896;2022-12-08T06:11:17;-4.80;99.90
21115;DHT22;10715;48.546;9.896;2022-12-08T06:13:43;-4.80;99.90
21115;DHT22;10715;48.546;9.896;2022-12-08T06:16:09;-4.90;99.90
21115;DHT22;10715;48.546;9.896;2022-12-08T06:18:35;-5.00;99.90
21115;DHT22;10715;48.546;9.896;2022-12-08T06:21:09;-5.10;99.90
21115;DHT22;10715;48.546;9.896;2022-12-08T06:23:35;-5.20;99.90
21115;DHT22;10715;48.546;9.896;2022-12-08T06:26:08;-5.20;99.90
21115;DHT22;10715;48.546;9.896;2022-12-08T06:28:36;-5.20;99.90
21115;DHT22;10715;48.546;9.896;2022-12-08T06:31:11;-5.20;99.90
21115;DHT22;10715;48.546;9.896;2022-12-08T06:33:38;-5.20;99.90
21115;DHT22;10715;48.546;9.896;2022-12-08T06:36:05;-5.20;99.90
21115;DHT22;10715;48.546;9.896;2022-12-08T06:38:31;-5.30;99.90
21115;DHT22;10715;48.546;9.896;2022-12-08T06:40:58;-5.30;99.90
21115;DHT22;10715;48.546;9.896;2022-12-08T06:43:24;-5.30;99.90
21115;DHT22;10715;48.546;9.896;2022-12-08T06:45:50;-5.40;99.90
21115;DHT22;10715;48.546;9.896;2022-12-08T06:48:17;-5.40;99.90
21115;DHT22;10715;48.546;9.896;2022-12-08T06:50:43;-5.40;99.90
21115;DHT22;10715;48.546;9.896;2022-12-08T06:53:11;-5.50;99.90
21115;DHT22;10715;48.546;9.896;2022-12-08T06:55:41;-5.50;99.90
21115;DHT22;10715;48.546;9.896;2022-12-08T06:58:07;-5.50;99.90
21115;DHT22;10715;48.546;9.896;2022-12-08T07:00:33;-5.50;99.90
21115;DHT22;10715;48.546;9.896;2022-12-08T07:02:59;-5.50;99.90
21115;DHT22;10715;48.546;9.896;2022-12-08T07:05:24;-5.40;99.90
21115;DHT22;10715;48.546;9.896;2022-12-08T07:07:50;-5.50;99.90
21115;DHT22;10715;48.546;9.896;2022-12-08T07:10:16;-5.50;99.90
21115;DHT22;10715;48.546;9.896;2022-12-08T07:12:41;-5.50;99.90
21115;DHT22;10715;48.546;9.896;2022-12-08T07:15:07;-5.60;99.90
21115;DHT22;10715;48.546;9.896;2022-12-08T07:17:33;-5.70;99.90
21115;DHT22;10715;48.546;9.896;2022-12-08T07:19:59;-5.70;99.90
21115;DHT22;10715;48.546;9.896;2022-12-08T07:22:25;-5.70;99.90
21115;DHT22;10715;48.546;9.896;2022-12-08T07:24:50;-5.70;99.90
21115;DHT22;10715;48.546;9.896;2022-12-08T07:27:16;-5.60;99.90
21115;DHT22;10715;48.546;9.896;2022-12-08T07:29:42;-5.60;99.90
21115;DHT22;10715;48.546;9.896;2022-12-08T07:32:07;-5.50;99.90
21115;DHT22;10715;48.546;9.896;2022-12-08T07:34:33;-5.50;99.90
21115;DHT22;10715;48.546;9.896;2022-12-08T07:36:59;-5.50;99.90
21115;DHT22;10715;48.546;9.896;2022-12-08T07:39:25;-5.50;99.90
21115;DHT22;10715;48.546;9.896;2022-12-08T07:41:50;-5.50;99.90
21115;DHT22;10715;48.546;9.896;2022-12-08T07:44:16;-5.60;99.90
21115;DHT22;10715;48.546;9.896;2022-12-08T07:46:42;-5.60;99.90
21115;DHT22;10715;48.546;9.896;2022-12-08T07:49:08;-5.60;99.90
21115;DHT22;10715;48.546;9.896;2022-12-08T07:51:33;-5.50;99.90
21115;DHT22;10715;48.546;9.896;2022-12-08T07:53:59;-5.50;99.90
21115;DHT22;10715;48.546;9.896;2022-12-08T07:56:25;-5.50;99.90
21115;DHT22;10715;48.546;9.896;2022-12-08T07:58:51;-5.50;99.90
21115;DHT22;10715;48.546;9.896;2022-12-08T08:01:19;-5.50;99.90
21115;DHT22;10715;48.546;9.896;2022-12-08T08:03:45;-5.40;99.90
21115;DHT22;10715;48.546;9.896;2022-12-08T08:06:10;-5.40;99.90
21115;DHT22;10715;48.546;9.896;2022-12-08T08:08:36;-5.40;99.90
21115;DHT22;10715;48.546;9.896;2022-12-08T08:11:05;-5.30;99.90
21115;DHT22;10715;48.546;9.896;2022-12-08T08:13:31;-5.30;99.90
21115;DHT22;10715;48.546;9.896;2022-12-08T08:16:07;-5.20;99.90
21115;DHT22;10715;48.546;9.896;2022-12-08T08:18:35;-5.10;99.90
21115;DHT22;10715;48.546;9.896;2022-12-08T08:21:01;-5.10;99.90
21115;DHT22;10715;48.546;9.896;2022-12-08T08:23:27;-5.00;99.90
21115;DHT22;10715;48.546;9.896;2022-12-08T08:25:53;-4.90;99.90
21115;DHT22;10715;48.546;9.896;2022-12-08T08:28:19;-4.80;99.90
21115;DHT22;10715;48.546;9.896;2022-12-08T08:30:46;-4.80;99.90
21115;DHT22;10715;48.546;9.896;2022-12-08T08:33:12;-4.80;99.90
21115;DHT22;10715;48.546;9.896;2022-12-08T08:35:38;-4.70;99.90
21115;DHT22;10715;48.546;9.896;2022-12-08T08:38:04;-4.70;99.90
21115;DHT22;10715;48.546;9.896;2022-12-08T08:40:30;-4.60;99.90
21115;DHT22;10715;48.546;9.896;2022-12-08T08:42:56;-4.60;99.90
21115;DHT22;10715;48.546;9.896;2022-12-08T08:45:21;-4.50;99.90
21115;DHT22;10715;48.546;9.896;2022-12-08T08:47:47;-4.50;99.90
21115;DHT22;10715;48.546;9.896;2022-12-08T08:50:13;-4.50;99.90
21115;DHT22;10715;48.546;9.896;2022-12-08T08:52:39;-4.60;99.90
21115;DHT22;10715;48.546;9.896;2022-12-08T08:55:05;-4.50;99.90
21115;DHT22;10715;48.546;9.896;2022-12-08T08:57:31;-4.60;99.90
21115;DHT22;10715;48.546;9.896;2022-12-08T08:59:56;-4.60;99.90
21115;DHT22;10715;48.546;9.896;2022-12-08T09:02:22;-4.60;99.90
21115;DHT22;10715;48.546;9.896;2022-12-08T09:04:48;-4.60;99.90
21115;DHT22;10715;48.546;9.896;2022-12-08T09:07:14;-4.60;99.90
21115;DHT22;10715;48.546;9.896;2022-12-08T09:09:40;-4.50;99.90
21115;DHT22;10715;48.546;9.896;2022-12-08T09:12:07;-4.40;99.90
21115;DHT22;10715;48.546;9.896;2022-12-08T09:14:33;-4.40;99.90
21115;DHT22;10715;48.546;9.896;2022-12-08T09:16:59;-4.30;99.90
21115;DHT22;10715;48.546;9.896;2022-12-08T09:19:24;-4.20;99.90
21115;DHT22;10715;48.546;9.896;2022-12-08T09:21:50;-4.20;99.90
21115;DHT22;10715;48.546;9.896;2022-12-08T09:24:16;-4.10;99.90
21115;DHT22;10715;48.546;9.896;2022-12-08T09:26:43;-4.00;99.90
21115;DHT22;10715;48.546;9.896;2022-12-08T09:29:10;-3.90;99.90
21115;DHT22;10715;48.546;9.896;2022-12-08T09:31:36;-3.80;99.90
21115;DHT22;10715;48.546;9.896;2022-12-08T09:34:03;-3.60;99.90
21115;DHT22;10715;48.546;9.896;2022-12-08T09:36:29;-3.50;99.90
21115;DHT22;10715;48.546;9.896;2022-12-08T09:38:55;-3.30;99.90
21115;DHT22;10715;48.546;9.896;2022-12-08T09:41:34;-3.20;99.90
21115;DHT22;10715;48.546;9.896;2022-12-08T09:46:51;-2.70;99.90
21115;DHT22;10715;48.546;9.896;2022-12-08T09:49:21;-2.50;99.90
21115;DHT22;10715;48.546;9.896;2022-12-08T09:51:48;-2.30;99.90
21115;DHT22;10715;48.546;9.896;2022-12-08T09:54:23;-2.10;99.90
21115;DHT22;10715;48.546;9.896;2022-12-08T09:56:54;-1.90;99.90
21115;DHT22;10715;48.546;9.896;2022-12-08T09:59:30;-1.60;99.90
21115;DHT22;10715;48.546;9.896;2022-12-08T10:01:59;-1.40;99.90
21115;DHT22;10715;48.546;9.896;2022-12-08T10:04:36;-1.20;99.90
21115;DHT22;10715;48.546;9.896;2022-12-08T10:18:17;-0.40;99.90
21115;DHT22;10715;48.546;9.896;2022-12-08T10:20:47;-0.30;99.90
21115;DHT22;10715;48.546;9.896;2022-12-08T10:23:33;-0.20;99.90
21115;DHT22;10715;48.546;9.896;2022-12-08T10:26:12;-0.10;99.90
21115;DHT22;10715;48.546;9.896;2022-12-08T10:28:39;-0.10;99.90
21115;DHT22;10715;48.546;9.896;2022-12-08T10:31:05;0.00;99.90
21115;DHT22;10715;48.546;9.896;2022-12-08T10:33:32;0.00;99.90
21115;DHT22;10715;48.546;9.896;2022-12-08T10:35:59;0.10;99.90
21115;DHT22;10715;48.546;9.896;2022-12-08T10:38:35;0.30;99.90
21115;DHT22;10715;48.546;9.896;2022-12-08T10:43:51;0.40;99.90
21115;DHT22;10715;48.546;9.896;2022-12-08T10:46:24;0.40;99.90
21115;DHT22;10715;48.546;9.896;2022-12-08T10:49:08;0.50;99.90
21115;DHT22;10715;48.546;9.896;2022-12-08T10:51:38;0.50;99.90
21115;DHT22;10715;48.546;9.896;2022-12-08T10:54:05;0.50;99.90
21115;DHT22;10715;48.546;9.896;2022-12-08T10:56:56;0.50;99.90
21115;DHT22;10715;48.546;9.896;2022-12-08T10:59:22;0.60;99.90
21115;DHT22;10715;48.546;9.896;2022-12-08T11:01:52;0.60;99.90
21115;DHT22;10715;48.546;9.896;2022-12-08T11:04:25;0.70;99.90
21115;DHT22;10715;48.546;9.896;2022-12-08T11:06:54;0.80;99.90
21115;DHT22;10715;48.546;9.896;2022-12-08T11:09:36;0.80;99.90
21115;DHT22;10715;48.546;9.896;2022-12-08T11:12:08;0.80;99.90
21115;DHT22;10715;48.546;9.896;2022-12-08T11:19:58;1.00;99.90
21115;DHT22;10715;48.546;9.896;2022-12-08T11:22:50;1.10;99.90
21115;DHT22;10715;48.546;9.896;2022-12-08T11:25:25;1.10;99.90
21115;DHT22;10715;48.546;9.896;2022-12-08T11:27:53;1.10;99.90
21115;DHT22;10715;48.546;9.896;2022-12-08T11:30:31;1.10;99.90
21115;DHT22;10715;48.546;9.896;2022-12-08T11:33:24;1.20;99.90
21115;DHT22;10715;48.546;9.896;2022-12-08T11:36:11;1.30;99.90
21115;DHT22;10715;48.546;9.896;2022-12-08T11:38:41;1.30;99.90
21115;DHT22;10715;48.546;9.896;2022-12-08T11:41:14;1.40;99.90
21115;DHT22;10715;48.546;9.896;2022-12-08T11:49:12;1.70;99.90
21115;DHT22;10715;48.546;9.896;2022-12-08T11:52:01;1.80;99.90
21115;DHT22;10715;48.546;9.896;2022-12-08T11:54:48;1.90;99.90
21115;DHT22;10715;48.546;9.896;2022-12-08T11:57:15;1.80;99.90
21115;DHT22;10715;48.546;9.896;2022-12-08T11:59:48;1.80;99.90
21115;DHT22;10715;48.546;9.896;2022-12-08T12:02:18;1.80;99.90
21115;DHT22;10715;48.546;9.896;2022-12-08T12:23:20;1.90;99.90
21115;DHT22;10715;48.546;9.896;2022-12-08T12:25:57;1.90;99.90
21115;DHT22;10715;48.546;9.896;2022-12-08T12:28:28;2.00;99.90
21115;DHT22;10715;48.546;9.896;2022-12-08T12:31:05;2.00;99.90
21115;DHT22;10715;48.546;9.896;2022-12-08T12:33:32;2.10;99.90
21115;DHT22;10715;48.546;9.896;2022-12-08T12:36:03;2.20;99.90
21115;DHT22;10715;48.546;9.896;2022-12-08T12:38:39;2.20;99.90
21115;DHT22;10715;48.546;9.896;2022-12-08T12:41:54;2.20;99.90
21115;DHT22;10715;48.546;9.896;2022-12-08T12:44:36;2.20;99.90
21115;DHT22;10715;48.546;9.896;2022-12-08T12:47:05;2.30;99.90
21115;DHT22;10715;48.546;9.896;2022-12-08T12:54:42;2.20;99.90
21115;DHT22;10715;48.546;9.896;2022-12-08T13:07:42;2.10;99.90
21115;DHT22;10715;48.546;9.896;2022-12-08T13:10:17;2.10;99.90
21115;DHT22;10715;48.546;9.896;2022-12-08T13:12:44;2.10;99.90
21115;DHT22;10715;48.546;9.896;2022-12-08T13:15:17;2.10;99.90
21115;DHT22;10715;48.546;9.896;2022-12-08T13:17:46;2.00;99.90
21115;DHT22;10715;48.546;9.896;2022-12-08T13:20:19;2.00;99.90
21115;DHT22;10715;48.546;9.896;2022-12-08T13:25:48;1.80;99.90
21115;DHT22;10715;48.546;9.896;2022-12-08T13:28:27;1.70;99.90
21115;DHT22;10715;48.546;9.896;2022-12-08T13:31:00;1.60;99.90
21115;DHT22;10715;48.546;9.896;2022-12-08T13:38:44;1.30;99.90
21115;DHT22;10715;48.546;9.896;2022-12-08T13:41:16;1.30;99.90
21115;DHT22;10715;48.546;9.896;2022-12-08T13:43:47;1.20;99.90
21115;DHT22;10715;48.546;9.896;2022-12-08T13:46:27;1.20;99.90
21115;DHT22;10715;48.546;9.896;2022-12-08T13:48:56;1.20;99.90
21115;DHT22;10715;48.546;9.896;2022-12-08T13:51:26;1.10;99.90
21115;DHT22;10715;48.546;9.896;2022-12-08T13:56:38;1.00;99.90
21115;DHT22;10715;48.546;9.896;2022-12-08T13:59:28;1.00;99.90
21115;DHT22;10715;48.546;9.896;2022-12-08T14:01:57;1.00;99.90
21115;DHT22;10715;48.546;9.896;2022-12-08T14:04:24;1.00;99.90
21115;DHT22;10715;48.546;9.896;2022-12-08T14:06:59;0.90;99.90
21115;DHT22;10715;48.546;9.896;2022-12-08T14:09:33;0.90;99.90
21115;DHT22;10715;48.546;9.896;2022-12-08T14:12:05;0.90;99.90
21115;DHT22;10715;48.546;9.896;2022-12-08T14:14:39;0.90;99.90
21115;DHT22;10715;48.546;9.896;2022-12-08T14:17:10;0.90;99.90
21115;DHT22;10715;48.546;9.896;2022-12-08T14:19:36;0.80;99.90
21115;DHT22;10715;48.546;9.896;2022-12-08T14:22:11;0.80;99.90
21115;DHT22;10715;48.546;9.896;2022-12-08T14:24:38;0.80;99.90
21115;DHT22;10715;48.546;9.896;2022-12-08T14:27:06;0.80;99.90
21115;DHT22;10715;48.546;9.896;2022-12-08T14:29:52;0.70;99.90
21115;DHT22;10715;48.546;9.896;2022-12-08T14:37:37;0.60;99.90
21115;DHT22;10715;48.546;9.896;2022-12-08T14:40:10;0.60;99.90
21115;DHT22;10715;48.546;9.896;2022-12-08T14:42:48;0.60;99.90
21115;DHT22;10715;48.546;9.896;2022-12-08T14:45:15;0.50;99.90
21115;DHT22;10715;48.546;9.896;2022-12-08T14:47:42;0.50;99.90
21115;DHT22;10715;48.546;9.896;2022-12-08T14:53:15;0.50;99.90
21115;DHT22;10715;48.546;9.896;2022-12-08T14:55:43;0.40;99.90
21115;DHT22;10715;48.546;9.896;2022-12-08T14:58:19;0.40;99.90
21115;DHT22;10715;48.546;9.896;2022-12-08T15:00:47;0.40;99.90
21115;DHT22;10715;48.546;9.896;2022-12-08T15:03:15;0.40;99.90
21115;DHT22;10715;48.546;9.896;2022-12-08T15:05:42;0.30;99.90
21115;DHT22;10715;48.546;9.896;2022-12-08T15:08:09;0.30;99.90
21115;DHT22;10715;48.546;9.896;2022-12-08T15:10:39;0.30;99.90
21115;DHT22;10715;48.546;9.896;2022-12-08T15:15:53;0.20;99.90
21115;DHT22;10715;48.546;9.896;2022-12-08T15:18:39;0.20;99.90
21115;DHT22;10715;48.546;9.896;2022-12-08T15:21:07;0.20;99.90
21115;DHT22;10715;48.546;9.896;2022-12-08T15:23:42;0.10;99.90
21115;DHT22;10715;48.546;9.896;2022-12-08T15:26:19;0.10;99.90
21115;DHT22;10715;48.546;9.896;2022-12-08T15:28:48;0.10;99.90
21115;DHT22;10715;48.546;9.896;2022-12-08T15:31:13;0.10;99.90
21115;DHT22;10715;48.546;9.896;2022-12-08T15:33:40;0.00;99.90
21115;DHT22;10715;48.546;9.896;2022-12-08T15:36:06;0.00;99.90
21115;DHT22;10715;48.546;9.896;2022-12-08T15:38:32;0.00;99.90
21115;DHT22;10715;48.546;9.896;2022-12-08T15:40:59;0.00;99.90
21115;DHT22;10715;48.546;9.896;2022-12-08T15:43:25;-0.10;99.90
21115;DHT22;10715;48.546;9.896;2022-12-08T15:45:51;-0.10;99.90
21115;DHT22;10715;48.546;9.896;2022-12-08T15:48:21;-0.10;99.90
21115;DHT22;10715;48.546;9.896;2022-12-08T15:50:47;-0.10;99.90
21115;DHT22;10715;48.546;9.896;2022-12-08T15:53:13;-0.10;99.90
21115;DHT22;10715;48.546;9.896;2022-12-08T15:55:39;-0.20;99.90
21115;DHT22;10715;48.546;9.896;2022-12-08T15:58:05;-0.20;99.90
21115;DHT22;10715;48.546;9.896;2022-12-08T16:00:34;-0.20;99.90
21115;DHT22;10715;48.546;9.896;2022-12-08T16:03:01;-0.20;99.90
21115;DHT22;10715;48.546;9.896;2022-12-08T16:05:29;-0.20;99.90
21115;DHT22;10715;48.546;9.896;2022-12-08T16:07:55;-0.30;99.90
21115;DHT22;10715;48.546;9.896;2022-12-08T16:10:26;-0.30;99.90
21115;DHT22;10715;48.546;9.896;2022-12-08T16:12:52;-0.30;99.90
21115;DHT22;10715;48.546;9.896;2022-12-08T16:15:41;-0.30;99.90
21115;DHT22;10715;48.546;9.896;2022-12-08T16:18:14;-0.30;99.90
21115;DHT22;10715;48.546;9.896;2022-12-08T16:20:42;-0.30;99.90
21115;DHT22;10715;48.546;9.896;2022-12-08T16:23:07;-0.30;99.90
21115;DHT22;10715;48.546;9.896;2022-12-08T16:25:33;-0.40;99.90
21115;DHT22;10715;48.546;9.896;2022-12-08T16:27:59;-0.40;99.90
21115;DHT22;10715;48.546;9.896;2022-12-08T16:30:25;-0.40;99.90
21115;DHT22;10715;48.546;9.896;2022-12-08T16:32:51;-0.40;99.90
21115;DHT22;10715;48.546;9.896;2022-12-08T16:35:17;-0.40;99.90
21115;DHT22;10715;48.546;9.896;2022-12-08T16:37:42;-0.40;99.90
21115;DHT22;10715;48.546;9.896;2022-12-08T16:40:10;-0.40;99.90
21115;DHT22;10715;48.546;9.896;2022-12-08T16:42:36;-0.50;99.90
21115;DHT22;10715;48.546;9.896;2022-12-08T16:47:35;-0.50;99.90
21115;DHT22;10715;48.546;9.896;2022-12-08T16:53:02;-0.50;99.90
21115;DHT22;10715;48.546;9.896;2022-12-08T16:55:28;-0.50;99.90
21115;DHT22;10715;48.546;9.896;2022-12-08T16:57:54;-0.50;99.90
21115;DHT22;10715;48.546;9.896;2022-12-08T17:00:22;-0.60;99.90
21115;DHT22;10715;48.546;9.896;2022-12-08T17:02:49;-0.60;99.90
21115;DHT22;10715;48.546;9.896;2022-12-08T17:05:17;-0.60;99.90
21115;DHT22;10715;48.546;9.896;2022-12-08T17:07:45;-0.60;99.90
21115;DHT22;10715;48.546;9.896;2022-12-08T17:10:16;-0.60;99.90
21115;DHT22;10715;48.546;9.896;2022-12-08T17:12:42;-0.60;99.90
21115;DHT22;10715;48.546;9.896;2022-12-08T17:15:11;-0.60;99.90
21115;DHT22;10715;48.546;9.896;2022-12-08T17:17:37;-0.60;99.90
21115;DHT22;10715;48.546;9.896;2022-12-08T17:20:12;-0.70;99.90
21115;DHT22;10715;48.546;9.896;2022-12-08T17:22:39;-0.70;99.90
21115;DHT22;10715;48.546;9.896;2022-12-08T17:25:06;-0.70;99.90
21115;DHT22;10715;48.546;9.896;2022-12-08T17:27:32;-0.70;99.90
21115;DHT22;10715;48.546;9.896;2022-12-08T17:29:58;-0.70;99.90
21115;DHT22;10715;48.546;9.896;2022-12-08T17:32:23;-0.70;99.90
21115;DHT22;10715;48.546;9.896;2022-12-08T17:34:49;-0.70;99.90
21115;DHT22;10715;48.546;9.896;2022-12-08T17:37:16;-0.70;99.90
21115;DHT22;10715;48.546;9.896;2022-12-08T17:39:42;-0.70;99.90
21115;DHT22;10715;48.546;9.896;2022-12-08T17:42:08;-0.70;99.90